Time;durP1;ratioP1;P1;durP2;ratioP2;P2;SDS_P1;SDS_P2;PMS_P1;PMS_P2;Temp;Humidity;BMP_temperature;BMP_pressure;BME280_temperature;BME280_humidity;BME280_pressure;Samples;Min_cycle;Max_cycle;Signal;HPM_P1;HPM_P2
2021/10/20 00:01:58;;;;;;;;;;;;;;;2.81;79.35;102457.73;1875658;76;20117;-58
2021/10/20 00:04:26;;;;;;;;;;;;;;;2.72;79.48;102447.14;1875730;76;20152;-60
2021/10/20 00:06:54;;;;;;;;;;;;;;;2.66;79.76;102443.55;1875746;76;20151;-60
2021/10/20 00:09:21;;;;;;;;;;;;;;;2.69;79.98;102441.43;1875699;76;20121;-60
2021/10/20 00:11:49;;;;;;;;;;;;;;;2.69;80.16;102446.23;1875705;76;20105;-60
2021/10/20 00:14:17;;;;;;;;;;;;;;;2.67;80.34;102444.03;1875681;76;20109;-60
2021/10/20 00:16:45;;;;;;;;;;;;;;;2.65;80.79;102441.78;1875882;76;20143;-59
2021/10/20 00:19:13;;;;;;;;;;;;;;;2.61;80.85;102436.50;1875744;76;20109;-59
2021/10/20 00:21:41;;;;;;;;;;;;;;;2.53;80.56;102446.75;1875712;76;20144;-59
2021/10/20 00:24:09;;;;;;;;;;;;;;;2.44;80.23;102446.55;1875705;76;20122;-60
2021/10/20 00:26:37;;;;;;;;;;;;;;;2.33;80.09;102440.24;1875740;76;20117;-59
2021/10/20 00:29:06;;;;;;;;;;;;;;;2.23;80.62;102439.13;1875656;76;20420;-60
2021/10/20 00:31:34;;;;;;;;;;;;;;;2.23;81.70;102436.13;1875829;76;20202;-60
2021/10/20 00:34:02;;;;;;;;;;;;;;;2.21;81.92;102439.09;1875734;76;20129;-59
2021/10/20 00:36:30;;;;;;;;;;;;;;;2.25;82.09;102446.14;1875748;76;20113;-59
2021/10/20 00:38:58;;;;;;;;;;;;;;;2.29;82.09;102451.86;1875756;76;20153;-59
2021/10/20 00:41:29;;;;;;;;;;;;;;;2.26;82.07;102450.48;1875783;76;20147;-60
2021/10/20 00:43:57;;;;;;;;;;;;;;;2.20;82.00;102450.34;1875765;76;20402;-59
2021/10/20 00:46:26;;;;;;;;;;;;;;;2.18;82.21;102450.74;1875718;76;20117;-59
2021/10/20 00:48:54;;;;;;;;;;;;;;;2.17;82.16;102443.77;1875730;76;20152;-59
2021/10/20 00:51:25;;;;;;;;;;;;;;;2.21;82.18;102446.89;1875712;76;20144;-58
2021/10/20 00:53:51;;;;;;;;;;;;;;;2.24;82.12;102449.57;1875695;75;20117;-59
2021/10/20 00:56:19;;;;;;;;;;;;;;;2.24;82.05;102453.47;1875705;76;20105;-59
2021/10/20 00:58:47;;;;;;;;;;;;;;;2.26;81.91;102453.08;1875715;76;20125;-59
2021/10/20 01:01:16;;;;;;;;;;;;;;;2.28;81.95;102447.92;1875755;76;20186;-59
2021/10/20 01:03:45;;;;;;;;;;;;;;;2.31;81.77;102451.90;1875726;76;20168;-59
2021/10/20 01:06:13;;;;;;;;;;;;;;;2.36;81.32;102451.98;1875691;76;20151;-59
2021/10/20 01:08:41;;;;;;;;;;;;;;;2.36;81.25;102453.28;1875649;76;20144;-59
2021/10/20 01:11:09;;;;;;;;;;;;;;;2.35;80.99;102456.31;1875697;76;20145;-59
2021/10/20 01:13:37;;;;;;;;;;;;;;;2.34;80.82;102457.58;1875697;76;20113;-59
2021/10/20 01:16:05;;;;;;;;;;;;;;;2.29;80.89;102458.36;1875700;76;20109;-59
2021/10/20 01:18:33;;;;;;;;;;;;;;;2.21;80.78;102463.78;1875725;76;20105;-59
2021/10/20 01:21:01;;;;;;;;;;;;;;;2.13;80.87;102463.61;1875632;76;20121;-59
2021/10/20 01:23:29;;;;;;;;;;;;;;;2.08;80.82;102465.22;1875744;76;20133;-59
2021/10/20 01:25:57;;;;;;;;;;;;;;;1.98;80.82;102461.96;1875659;76;20121;-59
2021/10/20 01:28:25;;;;;;;;;;;;;;;1.92;80.80;102465.29;1875712;76;20169;-58
2021/10/20 01:30:52;;;;;;;;;;;;;;;1.86;80.99;102456.06;1875715;76;20164;-58
2021/10/20 01:33:21;;;;;;;;;;;;;;;1.83;80.90;102458.57;1875730;76;20148;-59
2021/10/20 01:35:48;;;;;;;;;;;;;;;1.75;80.79;102457.48;1875649;76;20202;-59
2021/10/20 01:38:16;;;;;;;;;;;;;;;1.67;80.96;102459.02;1875784;76;20105;-59
2021/10/20 01:40:44;;;;;;;;;;;;;;;1.55;81.29;102458.31;1875700;76;20195;-59
2021/10/20 01:43:12;;;;;;;;;;;;;;;1.53;82.09;102463.85;1875685;76;20148;-59
2021/10/20 01:45:40;;;;;;;;;;;;;;;1.53;82.26;102454.77;1875739;76;20149;-59
2021/10/20 01:48:07;;;;;;;;;;;;;;;1.55;82.44;102466.09;1875777;76;20180;-59
2021/10/20 01:50:35;;;;;;;;;;;;;;;1.58;82.36;102468.75;1875674;76;20121;-59
2021/10/20 01:53:03;;;;;;;;;;;;;;;1.60;82.16;102478.75;1875669;76;20113;-59
2021/10/20 01:55:31;;;;;;;;;;;;;;;1.58;82.18;102470.47;1875648;76;20109;-59
2021/10/20 01:57:59;;;;;;;;;;;;;;;1.54;82.24;102467.79;1875657;76;20113;-59
2021/10/20 02:00:27;;;;;;;;;;;;;;;1.55;82.41;102473.89;1875648;76;20145;-59
2021/10/20 02:02:55;;;;;;;;;;;;;;;1.57;82.62;102473.90;1875634;76;20176;-59
2021/10/20 02:05:23;;;;;;;;;;;;;;;1.60;82.60;102473.98;1875606;76;20155;-59
2021/10/20 02:07:50;;;;;;;;;;;;;;;1.65;82.40;102472.39;1875664;76;20117;-59
2021/10/20 02:10:18;;;;;;;;;;;;;;;1.69;82.10;102478.12;1875651;76;20117;-59
2021/10/20 02:12:46;;;;;;;;;;;;;;;1.71;81.88;102485.09;1875649;76;20184;-59
2021/10/20 02:15:14;;;;;;;;;;;;;;;1.71;82.01;102485.52;1875578;75;20168;-59
2021/10/20 02:17:42;;;;;;;;;;;;;;;1.71;82.07;102491.59;1875714;76;20149;-59
2021/10/20 02:20:11;;;;;;;;;;;;;;;1.71;82.24;102495.48;1875690;76;20145;-59
2021/10/20 02:22:39;;;;;;;;;;;;;;;1.70;82.37;102492.88;1875681;76;20117;-59
2021/10/20 02:25:09;;;;;;;;;;;;;;;1.69;82.35;102495.00;1876597;76;20144;-59
2021/10/20 02:27:37;;;;;;;;;;;;;;;1.69;82.29;102495.00;1878063;76;20176;-60
2021/10/20 02:30:06;;;;;;;;;;;;;;;1.70;82.05;102495.47;1878048;76;20242;-59
2021/10/20 02:32:34;;;;;;;;;;;;;;;1.70;81.74;102503.27;1878171;76;20144;-59
2021/10/20 02:35:04;;;;;;;;;;;;;;;1.70;81.47;102503.27;1878194;76;20117;-58
2021/10/20 02:37:32;;;;;;;;;;;;;;;1.66;81.58;102503.60;1878228;76;20335;-59
2021/10/20 02:40:00;;;;;;;;;;;;;;;1.63;81.55;102504.80;1878127;76;20121;-59
2021/10/20 02:42:28;;;;;;;;;;;;;;;1.61;81.37;102512.11;1878043;76;20121;-59
2021/10/20 02:44:56;;;;;;;;;;;;;;;1.60;81.54;102507.74;1878139;76;20168;-59
2021/10/20 02:47:23;;;;;;;;;;;;;;;1.54;81.64;102512.35;1878102;76;20109;-59
2021/10/20 02:49:51;;;;;;;;;;;;;;;1.48;81.64;102520.86;1878134;76;20147;-59
2021/10/20 02:52:19;;;;;;;;;;;;;;;1.43;81.73;102527.64;1878075;76;20117;-60
2021/10/20 02:54:47;;;;;;;;;;;;;;;1.41;81.55;102532.34;1878010;75;20117;-59
2021/10/20 02:57:14;;;;;;;;;;;;;;;1.40;81.62;102528.84;1878120;76;20176;-59
2021/10/20 02:59:42;;;;;;;;;;;;;;;1.36;81.79;102530.90;1878119;76;20117;-59
2021/10/20 03:02:10;;;;;;;;;;;;;;;1.32;82.00;102534.25;1878071;76;20129;-59
2021/10/20 03:04:38;;;;;;;;;;;;;;;1.25;82.16;102537.08;1878076;76;20117;-59
2021/10/20 03:07:05;;;;;;;;;;;;;;;1.24;82.38;102537.06;1878098;76;20164;-59
2021/10/20 03:09:33;;;;;;;;;;;;;;;1.18;82.49;102544.66;1877933;75;20109;-59
2021/10/20 03:12:01;;;;;;;;;;;;;;;1.18;82.49;102549.84;1877983;76;20117;-59
2021/10/20 03:14:29;;;;;;;;;;;;;;;1.17;82.37;102552.00;1878087;76;20116;-59
2021/10/20 03:16:57;;;;;;;;;;;;;;;1.12;82.38;102548.82;1878070;76;20125;-59
2021/10/20 03:19:25;;;;;;;;;;;;;;;1.08;82.34;102543.52;1878080;76;20132;-59
2021/10/20 03:21:52;;;;;;;;;;;;;;;1.03;82.50;102551.15;1878015;76;20151;-59
2021/10/20 03:24:20;;;;;;;;;;;;;;;1.02;82.64;102552.00;1878056;76;20171;-58
2021/10/20 03:26:48;;;;;;;;;;;;;;;1.04;82.60;102556.81;1877980;76;20109;-59
2021/10/20 03:29:16;;;;;;;;;;;;;;;1.07;82.58;102564.70;1878090;76;20168;-59
2021/10/20 03:31:43;;;;;;;;;;;;;;;1.10;82.33;102553.52;1878030;76;20108;-59
2021/10/20 03:34:12;;;;;;;;;;;;;;;1.07;82.37;102560.81;1878058;76;20624;-60
2021/10/20 03:36:40;;;;;;;;;;;;;;;1.06;82.60;102563.35;1877939;76;20147;-59
2021/10/20 03:39:07;;;;;;;;;;;;;;;1.04;82.55;102562.44;1878041;76;20113;-59
2021/10/20 03:41:35;;;;;;;;;;;;;;;1.05;82.62;102570.66;1878053;76;20190;-59
2021/10/20 03:44:03;;;;;;;;;;;;;;;1.04;82.52;102568.49;1878033;76;20109;-59
2021/10/20 03:46:31;;;;;;;;;;;;;;;1.07;82.50;102571.19;1878065;76;20116;-59
2021/10/20 03:48:59;;;;;;;;;;;;;;;1.09;82.33;102577.30;1878009;75;20120;-61
2021/10/20 03:51:27;;;;;;;;;;;;;;;1.09;82.33;102573.41;1878021;76;20156;-59
2021/10/20 03:53:55;;;;;;;;;;;;;;;1.10;82.33;102576.44;1878035;76;20121;-59
2021/10/20 03:56:22;;;;;;;;;;;;;;;1.09;82.30;102582.48;1878049;76;20117;-59
2021/10/20 03:58:50;;;;;;;;;;;;;;;1.11;82.35;102579.94;1878146;76;20121;-59
2021/10/20 04:01:18;;;;;;;;;;;;;;;1.09;82.30;102582.48;1878002;76;20117;-59
2021/10/20 04:03:46;;;;;;;;;;;;;;;1.07;82.51;102575.08;1877943;76;20164;-59
2021/10/20 04:06:14;;;;;;;;;;;;;;;1.09;82.45;102579.02;1878136;76;20143;-58
2021/10/20 04:08:41;;;;;;;;;;;;;;;1.18;82.16;102590.06;1878021;76;20125;-59
2021/10/20 04:11:09;;;;;;;;;;;;;;;1.26;81.90;102584.70;1878027;76;20117;-59
2021/10/20 04:13:37;;;;;;;;;;;;;;;1.35;81.65;102586.26;1878042;76;20125;-59
2021/10/20 04:16:05;;;;;;;;;;;;;;;1.42;81.48;102581.70;1877989;76;20120;-60
2021/10/20 04:18:33;;;;;;;;;;;;;;;1.50;81.26;102582.79;1878042;76;20200;-58
2021/10/20 04:21:01;;;;;;;;;;;;;;;1.56;81.14;102587.70;1878050;76;20109;-58
2021/10/20 04:23:29;;;;;;;;;;;;;;;1.62;80.95;102586.55;1878103;76;20121;-59
2021/10/20 04:25:57;;;;;;;;;;;;;;;1.69;80.82;102587.19;1877967;76;20214;-59
2021/10/20 04:28:25;;;;;;;;;;;;;;;1.75;80.69;102596.44;1877990;76;20155;-59
2021/10/20 04:30:52;;;;;;;;;;;;;;;1.85;80.54;102594.98;1878085;76;20117;-58
2021/10/20 04:33:20;;;;;;;;;;;;;;;1.95;80.33;102593.50;1878124;76;20140;-60
2021/10/20 04:35:49;;;;;;;;;;;;;;;2.02;80.16;102592.83;1878192;76;20105;-59
2021/10/20 04:38:17;;;;;;;;;;;;;;;2.10;79.93;102597.79;1878162;76;20117;-58
2021/10/20 04:40:45;;;;;;;;;;;;;;;2.14;79.79;102598.35;1878165;76;20109;-58
2021/10/20 04:43:12;;;;;;;;;;;;;;;2.18;79.63;102600.19;1878117;76;20117;-60
2021/10/20 04:45:41;;;;;;;;;;;;;;;2.25;79.54;102596.00;1878142;76;20105;-59
2021/10/20 04:48:09;;;;;;;;;;;;;;;2.36;79.44;102602.77;1878191;76;20151;-58
2021/10/20 04:50:37;;;;;;;;;;;;;;;2.49;79.24;102608.72;1878158;75;20116;-58
2021/10/20 04:53:04;;;;;;;;;;;;;;;2.58;78.97;102609.37;1878232;76;20143;-58
2021/10/20 04:55:33;;;;;;;;;;;;;;;2.65;78.68;102609.98;1878174;76;20105;-58
2021/10/20 04:58:07;;;;;;;;;;;;;;;2.70;78.50;102614.45;1878092;76;20885;-59
2021/10/20 05:00:34;;;;;;;;;;;;;;;2.77;78.28;102612.02;1878218;74;20117;-59
2021/10/20 05:03:02;;;;;;;;;;;;;;;2.78;78.09;102616.35;1878162;76;20120;-58
2021/10/20 05:05:30;;;;;;;;;;;;;;;2.84;78.07;102614.78;1878175;76;20120;-59
2021/10/20 05:07:58;;;;;;;;;;;;;;;2.92;77.86;102616.69;1878274;76;20104;-59
2021/10/20 05:10:27;;;;;;;;;;;;;;;2.99;77.72;102622.06;1878074;76;20164;-59
2021/10/20 05:13:01;;;;;;;;;;;;;;;3.15;77.45;102623.25;1878120;76;20113;-60
2021/10/20 05:15:25;;;;;;;;;;;;;;;3.34;77.40;102624.95;1849186;78;20107;-59
2021/10/20 05:17:53;;;;;;;;;;;;;;;3.60;77.15;102626.81;1872417;77;20149;-59
2021/10/20 05:20:21;;;;;;;;;;;;;;;3.81;76.50;102625.91;1872364;75;20235;-59
2021/10/20 05:22:48;;;;;;;;;;;;;;;4.34;75.61;102625.58;1872271;77;20224;-60
2021/10/20 05:25:18;;;;;;;;;;;;;;;4.92;74.54;102630.39;1872453;77;20173;-59
2021/10/20 05:27:46;;;;;;;;;;;;;;;5.58;72.97;102619.95;1863418;76;20181;-59
2021/10/20 05:30:15;;;;;;;;;;;;;;;6.24;72.06;102628.97;1860577;77;20157;-59
2021/10/20 05:32:42;;;;;;;;;;;;;;;6.91;71.94;102629.47;1860570;77;20106;-59
2021/10/20 05:35:18;;;;;;;;;;;;;;;7.61;70.62;102626.77;1860591;77;20110;-59
2021/10/20 05:37:40;;;;;;;;;;;;;;;8.11;69.11;102624.72;1859787;77;20197;-59
2021/10/20 05:40:09;;;;;;;;;;;;;;;8.67;68.49;102629.57;1860573;77;20131;-59
2021/10/20 05:42:37;;;;;;;;;;;;;;;9.13;67.29;102635.19;1860595;76;20127;-59
2021/10/20 05:45:05;;;;;;;;;;;;;;;9.42;63.83;102625.00;1860581;77;20107;-59
2021/10/20 05:47:33;;;;;;;;;;;;;;;9.66;62.39;102622.28;1860572;77;20122;-59
2021/10/20 05:50:01;;;;;;;;;;;;;;;9.86;61.54;102622.59;1860484;77;20162;-59
2021/10/20 05:52:30;;;;;;;;;;;;;;;10.23;61.65;102627.16;1851314;77;20114;-59
2021/10/20 05:54:59;;;;;;;;;;;;;;;10.60;60.98;102631.28;1858800;77;20123;-59
2021/10/20 05:57:27;;;;;;;;;;;;;;;10.99;59.79;102627.41;1859264;77;20119;-59
2021/10/20 05:59:55;;;;;;;;;;;;;;;11.34;58.28;102634.47;1861371;76;20170;-59
2021/10/20 06:02:23;;;;;;;;;;;;;;;11.87;59.30;102625.44;1861151;77;20106;-59
2021/10/20 06:04:51;;;;;;;;;;;;;;;12.20;58.47;102626.73;1861186;77;20115;-59
2021/10/20 06:07:19;;;;;;;;;;;;;;;12.68;58.25;102633.87;1861177;77;20141;-59
2021/10/20 06:09:47;;;;;;;;;;;;;;;13.24;58.03;102625.75;1861169;77;20149;-59
2021/10/20 06:12:15;;;;;;;;;;;;;;;13.66;56.07;102632.41;1861157;76;20272;-59
2021/10/20 06:14:43;;;;;;;;;;;;;;;14.13;56.06;102636.20;1861173;76;20153;-59
2021/10/20 06:17:10;;;;;;;;;;;;;;;14.68;55.56;102633.53;1861095;77;20111;-59
2021/10/20 06:19:38;;;;;;;;;;;;;;;15.18;54.40;102631.74;1861274;77;20198;-58
2021/10/20 06:22:06;;;;;;;;;;;;;;;15.61;54.06;102629.18;1861248;77;20118;-59
2021/10/20 06:24:34;;;;;;;;;;;;;;;15.80;53.43;102627.72;1861203;77;20115;-59
2021/10/20 06:27:02;;;;;;;;;;;;;;;16.31;53.64;102626.58;1861165;77;20123;-59
2021/10/20 06:29:30;;;;;;;;;;;;;;;16.94;52.86;102632.42;1861101;77;20106;-59
2021/10/20 06:31:58;;;;;;;;;;;;;;;17.49;52.91;102625.52;1861106;77;20127;-59
2021/10/20 06:34:25;;;;;;;;;;;;;;;17.69;52.10;102631.42;1861139;77;20204;-59
2021/10/20 06:36:53;;;;;;;;;;;;;;;17.96;51.86;102631.27;1861180;77;20158;-58
2021/10/20 06:39:21;;;;;;;;;;;;;;;18.11;50.32;102631.53;1861165;77;20119;-59
2021/10/20 06:41:49;;;;;;;;;;;;;;;18.28;49.81;102624.64;1861170;77;20110;-58
2021/10/20 06:44:17;;;;;;;;;;;;;;;18.29;49.13;102632.55;1861081;77;20424;-58
2021/10/20 06:46:45;;;;;;;;;;;;;;;18.34;49.49;102636.37;1861233;77;20200;-59
2021/10/20 06:49:13;;;;;;;;;;;;;;;18.36;48.36;102629.17;1861250;77;20127;-59
2021/10/20 06:51:41;;;;;;;;;;;;;;;18.19;47.75;102634.36;1863178;77;20153;-59
2021/10/20 06:54:11;;;;;;;;;;;;;;;18.16;48.30;102630.00;1855979;77;20127;-59
2021/10/20 06:56:39;;;;;;;;;;;;;;;18.31;48.33;102634.72;1856000;77;20443;-60
2021/10/20 06:59:06;;;;;;;;;;;;;;;18.63;46.57;102631.62;1856072;77;20107;-58
2021/10/20 07:01:34;;;;;;;;;;;;;;;18.61;46.04;102636.13;1856097;77;20123;-59
2021/10/20 07:04:02;;;;;;;;;;;;;;;18.51;45.87;102635.66;1856051;77;20115;-59
2021/10/20 07:06:30;;;;;;;;;;;;;;;18.78;47.39;102634.09;1856069;77;20123;-59
2021/10/20 07:08:57;;;;;;;;;;;;;;;19.29;47.87;102637.59;1856082;77;20115;-59
2021/10/20 07:11:26;;;;;;;;;;;;;;;19.40;46.71;102638.44;1856088;77;20154;-59
2021/10/20 07:13:53;;;;;;;;;;;;;;;19.45;47.26;102631.53;1856037;77;20142;-59
2021/10/20 07:16:21;;;;;;;;;;;;;;;19.88;45.18;102636.67;1856153;77;20150;-59
2021/10/20 07:18:50;;;;;;;;;;;;;;;20.47;46.38;102634.66;1856154;77;20154;-59
2021/10/20 07:21:18;;;;;;;;;;;;;;;20.47;45.46;102631.98;1856003;77;20119;-59
2021/10/20 07:23:46;;;;;;;;;;;;;;;20.08;45.52;102634.38;1855975;77;20123;-61
2021/10/20 07:26:17;;;;;;;;;;;;;;;20.29;46.12;102635.99;1856091;77;20130;-59
2021/10/20 07:28:43;;;;;;;;;;;;;;;19.63;44.16;102640.02;1856053;77;20107;-59
2021/10/20 07:31:12;;;;;;;;;;;;;;;19.20;45.95;102643.36;1856048;77;20123;-59
2021/10/20 07:33:41;;;;;;;;;;;;;;;20.19;45.10;102638.72;1856011;77;20123;-59
2021/10/20 07:36:09;;;;;;;;;;;;;;;21.21;39.50;102640.60;1856055;77;20122;-59
2021/10/20 07:38:36;;;;;;;;;;;;;;;21.64;35.53;102633.87;1855957;77;20244;-59
2021/10/20 07:41:04;;;;;;;;;;;;;;;21.71;38.29;102640.62;1856109;77;20214;-59
2021/10/20 07:43:33;;;;;;;;;;;;;;;21.69;39.47;102637.13;1856139;77;20119;-59
2021/10/20 07:46:01;;;;;;;;;;;;;;;21.39;39.73;102640.53;1856055;77;20401;-59
2021/10/20 07:48:29;;;;;;;;;;;;;;;21.02;41.13;102650.55;1856149;77;20115;-59
2021/10/20 07:50:57;;;;;;;;;;;;;;;21.41;40.90;102649.35;1855965;77;20161;-59
2021/10/20 07:53:25;;;;;;;;;;;;;;;22.00;39.11;102648.33;1860086;77;20122;-59
2021/10/20 07:55:53;;;;;;;;;;;;;;;22.41;38.71;102645.11;1861119;77;20115;-59
2021/10/20 07:58:21;;;;;;;;;;;;;;;22.08;39.20;102657.30;1861131;76;20114;-59
2021/10/20 08:00:49;;;;;;;;;;;;;;;21.27;39.82;102654.63;1861107;77;20119;-59
2021/10/20 08:03:16;;;;;;;;;;;;;;;20.80;40.15;102654.38;1861116;77;20204;-58
2021/10/20 08:05:44;;;;;;;;;;;;;;;21.01;39.98;102655.53;1861149;77;20193;-59
2021/10/20 08:08:12;;;;;;;;;;;;;;;21.87;38.12;102649.50;1861209;77;20114;-58
2021/10/20 08:10:41;;;;;;;;;;;;;;;22.45;38.03;102642.62;1861229;77;20153;-59
2021/10/20 08:13:08;;;;;;;;;;;;;;;23.55;37.42;102653.39;1861191;77;20118;-59
2021/10/20 08:15:39;;;;;;;;;;;;;;;24.43;35.85;102652.07;1861274;77;20204;-59
2021/10/20 08:18:06;;;;;;;;;;;;;;;25.14;35.34;102651.73;1861318;77;20188;-59
2021/10/20 08:20:34;;;;;;;;;;;;;;;25.75;35.25;102652.73;1861350;77;20149;-59
2021/10/20 08:23:03;;;;;;;;;;;;;;;26.08;34.24;102656.64;1861222;77;20123;-59
2021/10/20 08:25:35;;;;;;;;;;;;;;;26.25;33.52;102652.66;1861276;77;20107;-59
2021/10/20 08:28:05;;;;;;;;;;;;;;;26.41;34.03;102664.48;1861140;77;20173;-59
2021/10/20 08:30:33;;;;;;;;;;;;;;;26.65;33.21;102658.22;1861137;77;20122;-59
2021/10/20 08:33:02;;;;;;;;;;;;;;;26.86;32.78;102664.66;1861196;77;20106;-59
2021/10/20 08:35:30;;;;;;;;;;;;;;;26.94;31.84;102670.31;1861193;77;20122;-59
2021/10/20 08:38:04;;;;;;;;;;;;;;;27.12;32.67;102669.36;1861215;77;20143;-59
2021/10/20 08:40:30;;;;;;;;;;;;;;;27.20;32.45;102671.44;1860418;77;20122;-59
2021/10/20 08:42:58;;;;;;;;;;;;;;;27.32;32.10;102675.91;1861151;77;20114;-60
2021/10/20 08:48:15;;;;;;;;;;;;;;;27.47;30.61;102672.97;1812609;79;20434;-60
2021/10/20 08:50:44;;;;;;;;;;;;;;;27.46;29.61;102671.23;1812574;79;20395;-59
2021/10/20 08:53:13;;;;;;;;;;;;;;;27.33;28.06;102673.59;1812622;79;20129;-59
2021/10/20 08:55:41;;;;;;;;;;;;;;;27.01;26.58;102669.84;1812449;79;20117;-59
2021/10/20 08:58:09;;;;;;;;;;;;;;;26.91;27.93;102670.58;1812634;79;20121;-59
2021/10/20 09:00:37;;;;;;;;;;;;;;;27.01;27.43;102667.14;1812635;79;20223;-59
2021/10/20 09:03:05;;;;;;;;;;;;;;;27.23;27.51;102669.86;1812547;79;20161;-59
2021/10/20 09:05:32;;;;;;;;;;;;;;;27.42;28.19;102665.70;1812518;79;20122;-59
2021/10/20 09:08:00;;;;;;;;;;;;;;;27.31;28.23;102664.71;1812560;79;20121;-61
2021/10/20 09:10:29;;;;;;;;;;;;;;;27.18;28.25;102661.24;1812644;79;20169;-60
2021/10/20 09:12:57;;;;;;;;;;;;;;;27.38;28.01;102660.19;1812646;79;20152;-59
2021/10/20 09:15:26;;;;;;;;;;;;;;;27.07;26.02;102659.39;1812483;79;20152;-59
2021/10/20 09:17:55;;;;;;;;;;;;;;;26.99;26.19;102650.19;1812570;79;20105;-59
2021/10/20 09:20:24;;;;;;;;;;;;;;;26.89;26.15;102642.81;1812523;79;20388;-59
2021/10/20 09:23:05;;;;;;;;;;;;;;;27.01;26.29;102652.28;1812487;79;20152;-59
2021/10/20 09:25:35;;;;;;;;;;;;;;;26.96;25.81;102651.27;1812682;79;20117;-59
2021/10/20 09:28:03;;;;;;;;;;;;;;;26.68;25.93;102648.03;1812953;79;20148;-59
2021/10/20 09:30:31;;;;;;;;;;;;;;;26.57;26.54;102643.42;1812392;79;20129;-59
2021/10/20 09:33:00;;;;;;;;;;;;;;;26.79;26.38;102648.55;1812370;79;20130;-61
2021/10/20 09:35:33;;;;;;;;;;;;;;;26.69;24.60;102645.72;1812433;78;20197;-59
2021/10/20 09:38:02;;;;;;;;;;;;;;;26.80;25.90;102644.88;1812520;79;20109;-59
2021/10/20 09:40:34;;;;;;;;;;;;;;;26.69;26.19;102638.08;1812496;79;20118;-59
2021/10/20 09:43:02;;;;;;;;;;;;;;;26.98;26.32;102641.70;1812401;79;20118;-60
2021/10/20 09:45:32;;;;;;;;;;;;;;;25.51;26.11;102642.38;1812346;79;20126;-60
2021/10/20 09:48:19;;;;;;;;;;;;;;;24.00;28.01;102645.54;1812452;78;20223;-59
2021/10/20 09:50:58;;;;;;;;;;;;;;;22.85;29.32;102647.39;1812432;78;20129;-59
2021/10/20 09:53:27;;;;;;;;;;;;;;;23.71;28.50;102644.72;1812418;79;20110;-60
2021/10/20 09:55:55;;;;;;;;;;;;;;;24.54;27.82;102641.95;1812362;79;20117;-60
2021/10/20 09:58:25;;;;;;;;;;;;;;;25.10;26.14;102633.56;1812513;79;20122;-59
2021/10/20 10:00:56;;;;;;;;;;;;;;;25.61;26.27;102635.34;1812396;79;20152;-59
2021/10/20 10:03:24;;;;;;;;;;;;;;;25.90;26.44;102632.34;1812460;79;20121;-59
2021/10/20 10:05:51;;;;;;;;;;;;;;;26.09;26.41;102630.00;1812514;78;20152;-60
2021/10/20 10:08:19;;;;;;;;;;;;;;;26.36;25.93;102631.10;1812434;79;20129;-59
2021/10/20 10:10:49;;;;;;;;;;;;;;;26.22;25.62;102629.09;1812340;79;20180;-60
2021/10/20 10:13:21;;;;;;;;;;;;;;;26.17;25.91;102622.67;1812425;79;20125;-59
2021/10/20 10:15:50;;;;;;;;;;;;;;;26.04;25.64;102627.28;1812377;79;20176;-60
2021/10/20 10:18:18;;;;;;;;;;;;;;;26.15;25.82;102624.16;1812423;79;20189;-59
2021/10/20 10:20:46;;;;;;;;;;;;;;;25.79;24.32;102619.16;1812417;79;20117;-59
2021/10/20 10:23:24;;;;;;;;;;;;;;;25.60;25.10;102631.80;1812327;79;20121;-61
2021/10/20 10:26:04;;;;;;;;;;;;;;;25.71;25.58;102620.22;1812357;79;20117;-60
2021/10/20 10:28:32;;;;;;;;;;;;;;;25.57;25.20;102614.98;1812489;79;20590;-59
2021/10/20 10:31:08;;;;;;;;;;;;;;;25.60;25.90;102620.13;1812386;79;20113;-59
2021/10/20 10:33:38;;;;;;;;;;;;;;;25.57;25.51;102618.53;1812298;79;20156;-59
2021/10/20 10:36:19;;;;;;;;;;;;;;;25.63;25.35;102618.06;1812650;79;20372;-59
2021/10/20 10:38:47;;;;;;;;;;;;;;;25.48;25.51;102615.66;1812557;79;20109;-60
2021/10/20 10:41:19;;;;;;;;;;;;;;;25.34;25.50;102616.17;1812539;79;20125;-59
2021/10/20 10:43:51;;;;;;;;;;;;;;;25.14;25.08;102620.27;1812412;79;20168;-59
2021/10/20 10:46:20;;;;;;;;;;;;;;;24.98;25.38;102624.53;1813590;78;20204;-59
2021/10/20 10:48:51;;;;;;;;;;;;;;;24.94;26.10;102617.64;1828146;77;20191;-59
2021/10/20 10:51:20;;;;;;;;;;;;;;;24.90;26.01;102618.83;1832498;78;20184;-59
2021/10/20 10:53:53;;;;;;;;;;;;;;;24.90;25.94;102612.56;1832530;77;20113;-59
2021/10/20 10:56:20;;;;;;;;;;;;;;;24.79;25.68;102617.38;1832178;78;20120;-60
2021/10/20 10:58:56;;;;;;;;;;;;;;;24.69;26.13;102604.16;1832438;77;20155;-59
2021/10/20 11:01:40;;;;;;;;;;;;;;;24.56;26.16;102611.73;1832050;78;20120;-60
2021/10/20 11:04:21;;;;;;;;;;;;;;;24.22;24.79;102608.64;1822628;78;20153;-60
2021/10/20 11:06:50;;;;;;;;;;;;;;;23.62;23.11;102599.60;1832389;78;20202;-61
2021/10/20 11:09:21;;;;;;;;;;;;;;;23.19;24.64;102605.91;1832504;78;20199;-60
2021/10/20 11:11:49;;;;;;;;;;;;;;;23.24;25.42;102610.98;1832599;78;20219;-60
2021/10/20 11:14:17;;;;;;;;;;;;;;;23.29;25.80;102610.22;1832404;77;20422;-60
2021/10/20 11:16:46;;;;;;;;;;;;;;;23.31;25.63;102605.60;1832442;77;20125;-60
2021/10/20 11:19:14;;;;;;;;;;;;;;;23.16;26.00;102607.92;1832192;78;20148;-60
2021/10/20 11:21:44;;;;;;;;;;;;;;;23.04;26.13;102605.54;1832395;78;20180;-60
2021/10/20 11:24:12;;;;;;;;;;;;;;;22.73;26.20;102604.22;1832434;78;20117;-60
2021/10/20 11:26:40;;;;;;;;;;;;;;;22.51;26.18;102609.17;1832456;78;20127;-60
2021/10/20 11:29:08;;;;;;;;;;;;;;;22.17;25.99;102607.98;1832547;78;20120;-60
2021/10/20 11:31:54;;;;;;;;;;;;;;;22.02;26.27;102597.28;1832426;78;20124;-60
2021/10/20 11:34:23;;;;;;;;;;;;;;;21.53;26.50;102594.26;1832415;78;20162;-60
2021/10/20 11:36:51;;;;;;;;;;;;;;;21.21;27.07;102595.06;1832441;78;20120;-60
2021/10/20 11:39:19;;;;;;;;;;;;;;;20.90;27.58;102589.64;1832761;78;20167;-60
2021/10/20 11:41:52;;;;;;;;;;;;;;;20.36;28.07;102585.70;1832723;78;20112;-60
2021/10/20 11:44:33;;;;;;;;;;;;;;;19.70;28.54;102595.17;1832764;77;20464;-60
2021/10/20 11:47:02;;;;;;;;;;;;;;;19.17;29.10;102594.08;1832541;78;20125;-60
2021/10/20 11:49:30;;;;;;;;;;;;;;;18.62;29.65;102596.05;1832659;78;20128;-60
2021/10/20 11:51:58;;;;;;;;;;;;;;;18.20;30.05;102592.94;1832737;78;20387;-60
2021/10/20 11:54:26;;;;;;;;;;;;;;;17.79;30.37;102594.14;1832660;78;20113;-60
2021/10/20 11:56:55;;;;;;;;;;;;;;;17.52;30.72;102588.09;1832723;78;20116;-60
2021/10/20 11:59:24;;;;;;;;;;;;;;;17.26;30.88;102585.97;1832890;78;20386;-60
2021/10/20 12:01:52;;;;;;;;;;;;;;;17.06;31.44;102593.84;1832869;78;20121;-60
2021/10/20 12:04:21;;;;;;;;;;;;;;;16.88;30.93;102597.59;1832883;78;20195;-60
2021/10/20 12:06:50;;;;;;;;;;;;;;;16.64;31.00;102595.31;1832780;78;20151;-60
2021/10/20 12:09:18;;;;;;;;;;;;;;;16.45;31.61;102601.73;1832392;78;20159;-59
2021/10/20 12:11:47;;;;;;;;;;;;;;;16.33;32.04;102599.48;1832739;78;20120;-59
2021/10/20 12:14:16;;;;;;;;;;;;;;;16.21;32.40;102596.31;1832747;78;20125;-59
2021/10/20 12:16:44;;;;;;;;;;;;;;;16.16;32.57;102598.72;1832819;78;20128;-59
2021/10/20 12:19:12;;;;;;;;;;;;;;;16.19;32.83;102603.91;1832722;78;20112;-59
2021/10/20 12:21:40;;;;;;;;;;;;;;;16.17;32.96;102610.60;1832732;78;20168;-58
2021/10/20 12:24:09;;;;;;;;;;;;;;;16.03;31.97;102610.20;1832675;78;20128;-59
2021/10/20 12:26:38;;;;;;;;;;;;;;;15.84;33.32;102616.54;1832805;77;20120;-59
2021/10/20 12:29:07;;;;;;;;;;;;;;;15.75;33.54;102621.70;1832708;77;20390;-59
2021/10/20 12:31:36;;;;;;;;;;;;;;;15.64;33.84;102620.67;1832747;78;20120;-59
2021/10/20 12:34:05;;;;;;;;;;;;;;;15.53;34.07;102616.14;1832497;78;20113;-59
2021/10/20 12:36:34;;;;;;;;;;;;;;;15.44;34.30;102608.45;1832591;78;20112;-59
2021/10/20 12:39:03;;;;;;;;;;;;;;;15.43;34.31;102608.03;1832720;78;20112;-59
2021/10/20 12:41:38;;;;;;;;;;;;;;;15.37;34.44;102611.73;1832695;78;20124;-59
2021/10/20 12:44:07;;;;;;;;;;;;;;;15.33;34.65;102612.75;1832712;78;20128;-59
2021/10/20 12:46:42;;;;;;;;;;;;;;;15.25;34.49;102621.37;1832734;78;20391;-59
2021/10/20 12:49:08;;;;;;;;;;;;;;;15.20;34.72;102619.33;1824443;78;20116;-59
2021/10/20 12:51:40;;;;;;;;;;;;;;;15.10;34.94;102611.20;1812371;79;20421;-59